Time;durP1;ratioP1;P1;durP2;ratioP2;P2;SDS_P1;SDS_P2;PMS_P1;PMS_P2;Temp;Humidity;BMP_temperature;BMP_pressure;BME280_temperature;BME280_humidity;BME280_pressure;Samples;Min_cycle;Max_cycle;Signal;HPM_P1;HPM_P2
2022/03/05 00:01:17;;;;;;;23.33;12.07;;;;;;;;;;5100927;28;20227;-77
2022/03/05 00:03:45;;;;;;;18.50;11.00;;;;;;;;;;5103808;28;20189;-77
2022/03/05 00:06:12;;;;;;;21.33;11.43;;;;;;;;;;5106680;28;20200;-77
2022/03/05 00:08:39;;;;;;;19.93;10.63;;;;;;;;;;5096949;28;20288;-77
2022/03/05 00:11:06;;;;;;;18.77;10.53;;;;;;;;;;5091383;28;20299;-77
2022/03/05 00:13:36;;;;;;;18.77;10.43;;;;;;;;;;5096675;28;20266;-78
2022/03/05 00:16:04;;;;;;;19.43;9.17;;;;;;;;;;5099892;28;20672;-77
2022/03/05 00:18:31;;;;;;;14.67;9.07;;;;;;;;;;5086670;28;20288;-78
2022/03/05 00:20:58;;;;;;;15.43;9.10;;;;;;;;;;5094606;28;20194;-77
2022/03/05 00:23:26;;;;;;;16.93;8.27;;;;;;;;;;5108658;28;20671;-77
2022/03/05 00:25:53;;;;;;;16.40;8.67;;;;;;;;;;5107703;28;20224;-77
2022/03/05 00:28:20;;;;;;;15.47;9.13;;;;;;;;;;5092386;28;20757;-77
2022/03/05 00:30:49;;;;;;;19.47;9.63;;;;;;;;;;5091501;28;20201;-78
2022/03/05 00:33:19;;;;;;;22.53;10.77;;;;;;;;;;5092082;28;20280;-77
2022/03/05 00:35:46;;;;;;;19.73;9.93;;;;;;;;;;5105079;28;20232;-78
2022/03/05 00:38:14;;;;;;;19.80;9.43;;;;;;;;;;5110902;28;20303;-78
2022/03/05 00:40:41;;;;;;;21.43;9.57;;;;;;;;;;5110339;28;20242;-75
2022/03/05 00:43:08;;;;;;;16.03;8.83;;;;;;;;;;5104697;28;20675;-78
2022/03/05 00:45:36;;;;;;;18.80;9.90;;;;;;;;;;5091617;28;20615;-75
2022/03/05 00:48:05;;;;;;;15.40;9.07;;;;;;;;;;5091269;28;20205;-78
2022/03/05 00:50:32;;;;;;;20.00;9.33;;;;;;;;;;5094211;28;20225;-78
2022/03/05 00:52:59;;;;;;;15.07;9.10;;;;;;;;;;5108266;28;20702;-78
2022/03/05 00:55:26;;;;;;;19.07;9.00;;;;;;;;;;5109377;28;20635;-78
2022/03/05 00:57:54;;;;;;;17.17;9.00;;;;;;;;;;5104966;28;20311;-78
2022/03/05 01:00:21;;;;;;;16.03;8.70;;;;;;;;;;5111647;28;20340;-78
2022/03/05 01:02:48;;;;;;;21.63;9.83;;;;;;;;;;5111817;28;20201;-78
2022/03/05 01:05:17;;;;;;;15.50;9.63;;;;;;;;;;5107411;28;20228;-77
2022/03/05 01:07:44;;;;;;;23.23;8.70;;;;;;;;;;5102764;28;20649;-78
2022/03/05 01:10:11;;;;;;;17.73;11.30;;;;;;;;;;5101243;28;20300;-75
2022/03/05 01:12:38;;;;;;;21.07;10.60;;;;;;;;;;5107083;28;20232;-77
2022/03/05 01:15:06;;;;;;;20.23;11.13;;;;;;;;;;5106097;28;20255;-77
2022/03/05 01:17:34;;;;;;;21.37;10.97;;;;;;;;;;5114112;28;20200;-77
2022/03/05 01:20:01;;;;;;;17.70;10.70;;;;;;;;;;5099434;28;20226;-78
2022/03/05 01:22:29;;;;;;;20.33;10.50;;;;;;;;;;5101126;28;20294;-77
2022/03/05 01:24:56;;;;;;;18.93;10.50;;;;;;;;;;5110205;28;20232;-77
2022/03/05 01:27:24;;;;;;;18.83;10.57;;;;;;;;;;5099665;28;20230;-76
2022/03/05 01:29:51;;;;;;;17.70;9.57;;;;;;;;;;5108771;28;20231;-78
2022/03/05 01:32:18;;;;;;;18.07;9.07;;;;;;;;;;5106458;28;20223;-77
2022/03/05 01:34:45;;;;;;;14.07;9.23;;;;;;;;;;5112650;28;20327;-77
2022/03/05 01:37:12;;;;;;;16.07;9.30;;;;;;;;;;5109247;28;20220;-77
2022/03/05 01:39:43;;;;;;;15.40;8.43;;;;;;;;;;5099190;28;20330;-77
2022/03/05 01:42:10;;;;;;;17.57;8.10;;;;;;;;;;5094311;28;20616;-77
2022/03/05 01:44:37;;;;;;;16.67;8.17;;;;;;;;;;5103848;28;20620;-77
2022/03/05 01:47:06;;;;;;;14.73;7.90;;;;;;;;;;5104937;28;20243;-77
2022/03/05 01:49:33;;;;;;;14.63;8.53;;;;;;;;;;5114070;28;20233;-77
2022/03/05 01:52:00;;;;;;;14.87;9.03;;;;;;;;;;5112934;28;20236;-77
2022/03/05 01:54:27;;;;;;;13.63;7.80;;;;;;;;;;5110236;28;20259;-78
2022/03/05 01:56:56;;;;;;;14.50;8.63;;;;;;;;;;5093630;28;20590;-77
2022/03/05 01:59:23;;;;;;;15.67;8.63;;;;;;;;;;5096686;28;20813;-77
2022/03/05 02:01:50;;;;;;;17.30;9.50;;;;;;;;;;5093986;28;20574;-77
2022/03/05 02:04:18;;;;;;;15.80;9.57;;;;;;;;;;5095039;28;20224;-77
2022/03/05 02:06:45;;;;;;;19.00;9.23;;;;;;;;;;5103582;28;20239;-77
2022/03/05 02:09:12;;;;;;;17.50;10.10;;;;;;;;;;5113369;28;20732;-77
2022/03/05 02:11:40;;;;;;;13.63;9.37;;;;;;;;;;5094354;28;20250;-77
2022/03/05 02:14:09;;;;;;;12.83;8.57;;;;;;;;;;5105612;28;20243;-78
2022/03/05 02:16:36;;;;;;;14.70;9.03;;;;;;;;;;5099457;28;20193;-77
2022/03/05 02:19:04;;;;;;;18.33;9.93;;;;;;;;;;5099073;28;20260;-77
2022/03/05 02:21:33;;;;;;;17.40;8.80;;;;;;;;;;5107135;28;20283;-78
2022/03/05 02:24:00;;;;;;;16.53;10.63;;;;;;;;;;5097622;28;20761;-78
2022/03/05 02:26:27;;;;;;;16.50;9.70;;;;;;;;;;5095190;28;20199;-77
2022/03/05 02:28:54;;;;;;;16.53;9.67;;;;;;;;;;5110905;28;20289;-77
2022/03/05 02:31:22;;;;;;;17.83;9.27;;;;;;;;;;5107452;28;20711;-77
2022/03/05 02:33:52;;;;;;;16.77;8.73;;;;;;;;;;5102898;28;20256;-77
2022/03/05 02:36:19;;;;;;;15.83;8.70;;;;;;;;;;5111662;28;20269;-77
2022/03/05 02:38:48;;;;;;;17.13;8.40;;;;;;;;;;5105421;28;20237;-77
2022/03/05 02:41:18;;;;;;;17.93;9.43;;;;;;;;;;5112847;28;20227;-77
2022/03/05 02:43:45;;;;;;;19.43;8.53;;;;;;;;;;5113450;28;20255;-77
2022/03/05 02:46:12;;;;;;;17.07;8.77;;;;;;;;;;5103609;28;20281;-77
2022/03/05 02:48:39;;;;;;;19.93;9.10;;;;;;;;;;5098461;28;20221;-77
2022/03/05 02:51:07;;;;;;;17.73;9.10;;;;;;;;;;5092576;28;20289;-77
2022/03/05 02:53:34;;;;;;;16.03;9.00;;;;;;;;;;5092229;28;20310;-77
2022/03/05 02:56:03;;;;;;;17.10;9.00;;;;;;;;;;5093828;28;20235;-77
2022/03/05 02:58:30;;;;;;;18.43;9.37;;;;;;;;;;5111610;28;20261;-77
2022/03/05 03:00:58;;;;;;;18.90;9.07;;;;;;;;;;5102184;28;20786;-78
2022/03/05 03:03:25;;;;;;;14.37;8.43;;;;;;;;;;5100578;28;20204;-77
2022/03/05 03:05:52;;;;;;;15.13;8.57;;;;;;;;;;5092001;28;20547;-77
2022/03/05 03:08:19;;;;;;;11.33;8.03;;;;;;;;;;5099890;28;20292;-77
2022/03/05 03:10:46;;;;;;;11.47;8.50;;;;;;;;;;5092788;28;20237;-77
2022/03/05 03:13:15;;;;;;;15.87;8.40;;;;;;;;;;5098817;28;20198;-77
2022/03/05 03:15:42;;;;;;;16.03;8.50;;;;;;;;;;5094296;28;20745;-77
2022/03/05 03:18:10;;;;;;;15.73;9.67;;;;;;;;;;5095671;28;20229;-77
2022/03/05 03:20:37;;;;;;;16.23;8.80;;;;;;;;;;5100483;28;20234;-77
2022/03/05 03:23:04;;;;;;;14.37;8.77;;;;;;;;;;5093322;28;20285;-76
2022/03/05 03:25:31;;;;;;;15.77;9.03;;;;;;;;;;5092123;28;20195;-76
2022/03/05 03:27:59;;;;;;;13.60;8.37;;;;;;;;;;5111367;28;20281;-76
2022/03/05 03:30:27;;;;;;;15.93;8.10;;;;;;;;;;5112398;28;20233;-77
2022/03/05 03:32:54;;;;;;;13.27;7.40;;;;;;;;;;5098670;28;20664;-77
2022/03/05 03:35:22;;;;;;;11.57;7.77;;;;;;;;;;5111279;28;20668;-77
2022/03/05 03:37:49;;;;;;;11.10;7.23;;;;;;;;;;5104417;28;20206;-76
2022/03/05 03:40:17;;;;;;;12.37;7.73;;;;;;;;;;5091364;28;20195;-76
2022/03/05 03:42:45;;;;;;;11.83;7.30;;;;;;;;;;5092104;28;20255;-76
2022/03/05 03:45:13;;;;;;;10.47;7.20;;;;;;;;;;5106105;28;20286;-77
2022/03/05 03:47:42;;;;;;;12.43;7.30;;;;;;;;;;5111694;28;20235;-77
2022/03/05 03:50:10;;;;;;;9.70;6.50;;;;;;;;;;5112617;28;20240;-77
2022/03/05 03:52:37;;;;;;;10.90;7.03;;;;;;;;;;5101873;28;20198;-77
2022/03/05 03:55:05;;;;;;;15.03;7.67;;;;;;;;;;5102426;28;20257;-77
2022/03/05 03:57:33;;;;;;;17.03;8.30;;;;;;;;;;5104183;28;20583;-77
2022/03/05 04:00:00;;;;;;;13.97;8.73;;;;;;;;;;5107688;28;20217;-77
2022/03/05 04:02:27;;;;;;;16.70;9.60;;;;;;;;;;5111595;28;20289;-77
2022/03/05 04:04:56;;;;;;;14.80;8.40;;;;;;;;;;5104233;28;20293;-76
2022/03/05 04:10:08;;;;;;;13.93;8.23;;;;;;;;;;5091413;28;20228;-77
2022/03/05 04:12:35;;;;;;;15.23;8.33;;;;;;;;;;5092220;28;20629;-77
2022/03/05 04:15:03;;;;;;;15.40;8.97;;;;;;;;;;5101547;28;20325;-77
2022/03/05 04:17:30;;;;;;;17.80;9.47;;;;;;;;;;5101695;28;20225;-76
2022/03/05 04:19:58;;;;;;;18.07;9.13;;;;;;;;;;5103531;28;20202;-76
2022/03/05 04:22:26;;;;;;;14.37;8.63;;;;;;;;;;5110687;28;20232;-76
2022/03/05 04:24:53;;;;;;;13.40;8.77;;;;;;;;;;5110965;28;20738;-76
2022/03/05 04:27:20;;;;;;;15.23;9.00;;;;;;;;;;5113734;28;20307;-77
2022/03/05 04:29:47;;;;;;;13.20;8.83;;;;;;;;;;5115086;28;20242;-76
2022/03/05 04:32:15;;;;;;;13.13;8.30;;;;;;;;;;5102732;28;20277;-77
2022/03/05 04:34:42;;;;;;;12.83;8.57;;;;;;;;;;5095324;28;20221;-77
2022/03/05 04:37:11;;;;;;;14.03;8.33;;;;;;;;;;5103142;28;20224;-76
2022/03/05 04:39:38;;;;;;;12.30;8.37;;;;;;;;;;5104362;28;20221;-76
2022/03/05 04:42:05;;;;;;;16.20;8.17;;;;;;;;;;5114756;28;20197;-76
2022/03/05 04:44:32;;;;;;;13.13;7.83;;;;;;;;;;5096630;28;20235;-76
2022/03/05 04:47:00;;;;;;;12.47;7.47;;;;;;;;;;5096578;28;20281;-76
2022/03/05 04:49:27;;;;;;;10.53;7.47;;;;;;;;;;5094619;28;20277;-77
2022/03/05 04:51:54;;;;;;;13.80;7.87;;;;;;;;;;5095825;28;20288;-76
2022/03/05 04:54:25;;;;;;;12.13;7.63;;;;;;;;;;5112817;28;20772;-77
2022/03/05 04:56:52;;;;;;;12.10;8.07;;;;;;;;;;5109107;28;20653;-77
2022/03/05 04:59:19;;;;;;;13.20;8.13;;;;;;;;;;5105217;28;20702;-77
2022/03/05 05:01:47;;;;;;;11.33;7.67;;;;;;;;;;5102210;28;20222;-78
2022/03/05 05:04:14;;;;;;;12.07;7.70;;;;;;;;;;5106928;28;20280;-77
2022/03/05 05:06:41;;;;;;;13.07;7.90;;;;;;;;;;5115263;28;20239;-77
2022/03/05 05:09:08;;;;;;;11.20;7.57;;;;;;;;;;5102082;28;20249;-77
2022/03/05 05:11:37;;;;;;;11.40;7.07;;;;;;;;;;5099758;28;20286;-77
2022/03/05 05:14:04;;;;;;;11.47;7.23;;;;;;;;;;5112770;28;20222;-77
2022/03/05 05:16:31;;;;;;;12.20;6.97;;;;;;;;;;5087328;28;20237;-77
2022/03/05 05:21:43;;;;;;;10.70;7.03;;;;;;;;;;5094268;28;20205;-76
2022/03/05 05:24:10;;;;;;;13.07;8.50;;;;;;;;;;5102206;28;20285;-77
2022/03/05 05:26:39;;;;;;;13.37;7.83;;;;;;;;;;5113033;28;20641;-77
2022/03/05 05:29:06;;;;;;;13.10;8.10;;;;;;;;;;5108970;28;20283;-78
2022/03/05 05:31:33;;;;;;;11.27;7.40;;;;;;;;;;5098472;28;20235;-77
2022/03/05 05:34:01;;;;;;;14.63;8.37;;;;;;;;;;5114449;28;20284;-77
2022/03/05 05:36:28;;;;;;;12.63;7.83;;;;;;;;;;5095965;28;20237;-77
2022/03/05 05:38:55;;;;;;;18.77;8.40;;;;;;;;;;5105419;28;20292;-77
2022/03/05 05:41:22;;;;;;;17.97;8.43;;;;;;;;;;5105161;28;20293;-77
2022/03/05 05:43:51;;;;;;;12.97;7.97;;;;;;;;;;5094563;28;20340;-77
2022/03/05 05:46:18;;;;;;;12.63;7.47;;;;;;;;;;5094249;28;20197;-77
2022/03/05 05:48:45;;;;;;;11.87;7.70;;;;;;;;;;5098179;28;20699;-77
2022/03/05 05:51:12;;;;;;;12.80;8.47;;;;;;;;;;5112596;28;20663;-77
2022/03/05 05:53:39;;;;;;;12.10;8.00;;;;;;;;;;5113570;28;20688;-77
2022/03/05 05:56:07;;;;;;;16.17;8.03;;;;;;;;;;5097491;28;20224;-77
2022/03/05 05:58:34;;;;;;;11.87;7.57;;;;;;;;;;5101069;28;20220;-77
2022/03/05 06:01:02;;;;;;;12.00;7.40;;;;;;;;;;5107554;28;20236;-77
2022/03/05 06:03:30;;;;;;;13.43;7.50;;;;;;;;;;5108423;28;20607;-77
2022/03/05 06:05:59;;;;;;;11.10;7.37;;;;;;;;;;5114416;28;20251;-77
2022/03/05 06:08:26;;;;;;;12.40;7.80;;;;;;;;;;5095405;28;20202;-76
2022/03/05 06:10:54;;;;;;;12.93;7.50;;;;;;;;;;5103919;28;20286;-77
2022/03/05 06:13:21;;;;;;;11.00;7.40;;;;;;;;;;5109896;28;20210;-76
2022/03/05 06:15:49;;;;;;;12.13;7.27;;;;;;;;;;5093978;28;20307;-77
2022/03/05 06:18:17;;;;;;;12.53;7.90;;;;;;;;;;5093626;28;20318;-76
2022/03/05 06:20:44;;;;;;;13.07;7.87;;;;;;;;;;5099984;28;20228;-76
2022/03/05 06:23:12;;;;;;;13.90;7.80;;;;;;;;;;5093145;28;20240;-76
2022/03/05 06:25:39;;;;;;;12.90;8.27;;;;;;;;;;5093055;28;20697;-76
2022/03/05 06:28:06;;;;;;;13.87;8.67;;;;;;;;;;5093626;28;20240;-76
2022/03/05 06:30:33;;;;;;;12.60;8.97;;;;;;;;;;5096617;28;20226;-77
2022/03/05 06:33:00;;;;;;;12.90;8.50;;;;;;;;;;5100225;28;20291;-76
2022/03/05 06:35:29;;;;;;;12.27;8.40;;;;;;;;;;5098487;28;20224;-76
2022/03/05 06:37:56;;;;;;;15.00;8.97;;;;;;;;;;5103659;28;20293;-77
2022/03/05 06:40:23;;;;;;;14.03;8.70;;;;;;;;;;5092682;28;20239;-76
2022/03/05 06:42:51;;;;;;;13.63;8.37;;;;;;;;;;5092899;28;20597;-76
2022/03/05 06:45:18;;;;;;;13.40;8.93;;;;;;;;;;5099655;28;20628;-76
2022/03/05 06:47:45;;;;;;;14.93;8.40;;;;;;;;;;5110393;28;20288;-77
2022/03/05 06:50:13;;;;;;;12.70;7.93;;;;;;;;;;5113125;28;20235;-76
2022/03/05 06:52:42;;;;;;;13.07;8.23;;;;;;;;;;5102296;28;20225;-76
2022/03/05 06:55:13;;;;;;;12.93;8.10;;;;;;;;;;5105540;28;20303;-76
2022/03/05 06:57:40;;;;;;;13.10;8.43;;;;;;;;;;5096661;28;20637;-76
2022/03/05 07:00:08;;;;;;;14.60;8.77;;;;;;;;;;5092234;28;20235;-76
2022/03/05 07:02:36;;;;;;;16.70;8.73;;;;;;;;;;5092432;28;20230;-76
2022/03/05 07:05:03;;;;;;;18.20;8.70;;;;;;;;;;5092761;28;20237;-76
2022/03/05 07:07:31;;;;;;;15.13;8.83;;;;;;;;;;5093778;28;20619;-76
2022/03/05 07:09:59;;;;;;;11.60;7.90;;;;;;;;;;5106249;28;20233;-76
2022/03/05 07:12:27;;;;;;;13.70;8.10;;;;;;;;;;5107496;28;20222;-77
2022/03/05 07:14:54;;;;;;;15.77;8.90;;;;;;;;;;5103532;28;20285;-77
2022/03/05 07:17:21;;;;;;;16.77;14.00;;;;;;;;;;5092704;28;20233;-75
2022/03/05 07:19:48;;;;;;;11.10;8.77;;;;;;;;;;5102529;28;20243;-77
2022/03/05 07:22:15;;;;;;;9.77;6.93;;;;;;;;;;5111450;28;20204;-77
2022/03/05 07:24:42;;;;;;;9.10;6.43;;;;;;;;;;5092038;28;20230;-77
2022/03/05 07:27:11;;;;;;;8.57;5.90;;;;;;;;;;5102578;28;20258;-77
2022/03/05 07:29:38;;;;;;;9.70;5.40;;;;;;;;;;5095926;28;20623;-77
2022/03/05 07:32:06;;;;;;;7.57;5.67;;;;;;;;;;5092308;28;20261;-77
2022/03/05 07:34:33;;;;;;;8.37;5.73;;;;;;;;;;5100124;28;20296;-77
2022/03/05 07:37:01;;;;;;;8.43;5.47;;;;;;;;;;5100394;28;20816;-76
2022/03/05 07:39:28;;;;;;;6.80;5.30;;;;;;;;;;5096896;28;20735;-76
2022/03/05 07:41:55;;;;;;;5.87;5.27;;;;;;;;;;5101481;28;20217;-77
2022/03/05 07:44:24;;;;;;;6.07;4.97;;;;;;;;;;5103043;28;20205;-76
2022/03/05 07:46:51;;;;;;;6.10;4.70;;;;;;;;;;5103494;28;20282;-76
2022/03/05 07:49:18;;;;;;;6.30;5.10;;;;;;;;;;5102178;28;20241;-76
2022/03/05 07:51:46;;;;;;;6.37;4.90;;;;;;;;;;5102605;28;20579;-76
2022/03/05 07:54:14;;;;;;;5.77;5.07;;;;;;;;;;5101815;28;20201;-77
2022/03/05 07:56:42;;;;;;;6.50;5.40;;;;;;;;;;5095805;28;20222;-77
2022/03/05 07:59:09;;;;;;;7.33;5.03;;;;;;;;;;5093126;28;20264;-77
2022/03/05 08:01:39;;;;;;;7.17;5.90;;;;;;;;;;5101018;28;20225;-77
2022/03/05 08:04:06;;;;;;;7.43;6.70;;;;;;;;;;5102662;28;20255;-77
2022/03/05 08:06:34;;;;;;;8.07;6.77;;;;;;;;;;5100796;28;20257;-77
2022/03/05 08:09:01;;;;;;;9.20;7.07;;;;;;;;;;5104278;28;20293;-77
2022/03/05 08:11:28;;;;;;;8.13;6.90;;;;;;;;;;5094013;28;20233;-78
2022/03/05 08:13:55;;;;;;;7.50;6.50;;;;;;;;;;5096642;28;20225;-76
2022/03/05 08:16:22;;;;;;;7.30;6.50;;;;;;;;;;5108668;28;20301;-76
2022/03/05 08:18:51;;;;;;;9.03;6.43;;;;;;;;;;5098752;28;20305;-76
2022/03/05 08:21:18;;;;;;;7.23;6.50;;;;;;;;;;5106561;28;20247;-76
2022/03/05 08:23:45;;;;;;;7.00;6.35;;;;;;;;;;5096773;28;20284;-76
2022/03/05 08:26:13;;;;;;;6.72;5.35;;;;;;;;;;5106720;28;20201;-74
2022/03/05 08:28:42;;;;;;;6.80;4.95;;;;;;;;;;5090109;28;20205;-77
2022/03/05 08:31:11;;;;;;;8.13;5.55;;;;;;;;;;5090391;28;20198;-77
2022/03/05 08:33:39;;;;;;;17.63;13.90;;;;;;;;;;5097541;28;20201;-76
2022/03/05 08:36:07;;;;;;;7.63;5.18;;;;;;;;;;5089463;28;20317;-76
2022/03/05 08:38:36;;;;;;;7.25;5.20;;;;;;;;;;5095838;28;20297;-77
2022/03/05 08:41:04;;;;;;;8.63;5.20;;;;;;;;;;5093818;28;20285;-78
2022/03/05 08:43:31;;;;;;;8.38;5.93;;;;;;;;;;5094393;28;20659;-77
2022/03/05 08:46:01;;;;;;;10.27;6.13;;;;;;;;;;5090016;28;20226;-75
2022/03/05 08:48:28;;;;;;;8.48;6.40;;;;;;;;;;5094193;28;20209;-76
2022/03/05 08:50:55;;;;;;;9.35;6.53;;;;;;;;;;5094813;28;20206;-75
2022/03/05 08:53:24;;;;;;;10.70;6.72;;;;;;;;;;5094656;28;20301;-76
2022/03/05 08:55:52;;;;;;;7.45;6.25;;;;;;;;;;5093029;28;20233;-76
2022/03/05 08:58:19;;;;;;;9.90;5.90;;;;;;;;;;5097938;28;20214;-76
2022/03/05 09:00:47;;;;;;;8.82;6.00;;;;;;;;;;5105692;28;20225;-76
2022/03/05 09:03:14;;;;;;;9.35;5.63;;;;;;;;;;5110561;28;20239;-76
2022/03/05 09:05:41;;;;;;;9.52;6.05;;;;;;;;;;5107798;28;20285;-76
2022/03/05 09:08:08;;;;;;;9.43;6.60;;;;;;;;;;5093834;28;20324;-76
2022/03/05 09:10:37;;;;;;;8.45;6.32;;;;;;;;;;5095676;28;20576;-78
2022/03/05 09:13:04;;;;;;;9.75;6.35;;;;;;;;;;5107010;28;20236;-77
2022/03/05 09:15:32;;;;;;;8.32;6.18;;;;;;;;;;5095470;28;20635;-78
2022/03/05 09:17:59;;;;;;;9.43;6.72;;;;;;;;;;5098799;28;20616;-78
2022/03/05 09:20:26;;;;;;;11.25;7.25;;;;;;;;;;5093929;28;20202;-77
2022/03/05 09:22:54;;;;;;;9.90;6.53;;;;;;;;;;5095817;28;20663;-81
2022/03/05 09:25:21;;;;;;;9.40;6.90;;;;;;;;;;5101442;28;20244;-82
2022/03/05 09:27:49;;;;;;;9.23;6.75;;;;;;;;;;5099957;28;20202;-79
2022/03/05 09:30:17;;;;;;;9.77;7.15;;;;;;;;;;5103763;28;20221;-78
2022/03/05 09:32:44;;;;;;;10.38;7.38;;;;;;;;;;5102320;28;20681;-78
2022/03/05 09:35:11;;;;;;;11.48;7.03;;;;;;;;;;5106385;28;20265;-78
2022/03/05 09:37:39;;;;;;;10.07;6.57;;;;;;;;;;5107219;28;20935;-78
2022/03/05 09:40:07;;;;;;;12.18;7.78;;;;;;;;;;5104863;28;20271;-78
2022/03/05 09:42:35;;;;;;;9.68;7.07;;;;;;;;;;5106614;28;20280;-77
2022/03/05 09:45:05;;;;;;;8.48;6.65;;;;;;;;;;5101802;28;20641;-77
2022/03/05 09:47:32;;;;;;;10.82;7.47;;;;;;;;;;5095749;28;20231;-77
2022/03/05 09:50:00;;;;;;;12.68;7.78;;;;;;;;;;5107910;28;20229;-77
2022/03/05 09:52:27;;;;;;;8.38;6.90;;;;;;;;;;5104817;28;20229;-77
2022/03/05 09:54:54;;;;;;;9.35;7.78;;;;;;;;;;5108040;28;20638;-78
2022/03/05 09:57:21;;;;;;;10.40;7.70;;;;;;;;;;5100241;28;20517;-77
2022/03/05 09:59:48;;;;;;;11.93;7.57;;;;;;;;;;5097496;28;20736;-76
2022/03/05 10:02:19;;;;;;;10.80;7.60;;;;;;;;;;5095278;28;20230;-76
2022/03/05 10:04:46;;;;;;;10.97;7.50;;;;;;;;;;5106700;28;20209;-75
2022/03/05 10:07:14;;;;;;;8.60;7.50;;;;;;;;;;5101267;28;20225;-78
2022/03/05 10:09:43;;;;;;;9.80;7.40;;;;;;;;;;5102352;28;20216;-76
2022/03/05 10:12:29;;;;;;;9.07;7.30;;;;;;;;;;5098641;28;20233;-78
2022/03/05 10:15:10;;;;;;;14.07;8.77;;;;;;;;;;5094064;28;20226;-84
2022/03/05 10:18:04;;;;;;;11.50;7.37;;;;;;;;;;5106022;28;20305;-85
2022/03/05 10:20:34;;;;;;;12.17;7.30;;;;;;;;;;5015914;28;20197;-84
2022/03/05 10:23:03;;;;;;;8.70;6.73;;;;;;;;;;5012648;28;20289;-85
2022/03/05 10:25:31;;;;;;;8.67;7.30;;;;;;;;;;5011121;28;20236;-84
2022/03/05 10:28:01;;;;;;;11.30;7.13;;;;;;;;;;5017216;28;20640;-84
2022/03/05 10:30:31;;;;;;;12.37;7.57;;;;;;;;;;5029576;28;20323;-83
2022/03/05 10:32:59;;;;;;;8.63;6.93;;;;;;;;;;5014287;28;20240;-84
2022/03/05 10:35:26;;;;;;;10.33;6.70;;;;;;;;;;5022905;28;20272;-83
2022/03/05 10:37:55;;;;;;;8.20;6.27;;;;;;;;;;5029651;28;20825;-83
2022/03/05 10:40:32;;;;;;;10.13;6.40;;;;;;;;;;5022934;28;20672;-83
2022/03/05 10:43:00;;;;;;;8.37;5.60;;;;;;;;;;5018770;28;20283;-84
2022/03/05 10:45:29;;;;;;;8.37;5.40;;;;;;;;;;5028326;28;20200;-82
2022/03/05 10:47:57;;;;;;;8.93;5.70;;;;;;;;;;5018387;28;20216;-84
2022/03/05 10:50:26;;;;;;;8.33;6.00;;;;;;;;;;5028075;28;20210;-84
2022/03/05 10:52:56;;;;;;;5.60;4.80;;;;;;;;;;5011614;28;20284;-83
2022/03/05 10:55:24;;;;;;;5.10;4.23;;;;;;;;;;5035958;28;20200;-83
2022/03/05 10:58:01;;;;;;;6.83;4.57;;;;;;;;;;5094469;28;20311;-83
2022/03/05 11:00:29;;;;;;;5.73;4.23;;;;;;;;;;5093567;28;20234;-84
2022/03/05 11:02:57;;;;;;;5.27;4.20;;;;;;;;;;5107806;28;20280;-83
2022/03/05 11:05:25;;;;;;;7.23;4.53;;;;;;;;;;5112785;28;20204;-83
2022/03/05 11:07:54;;;;;;;5.47;4.10;;;;;;;;;;5112811;28;20193;-83
2022/03/05 11:10:25;;;;;;;5.73;3.80;;;;;;;;;;5096015;28;20194;-84
2022/03/05 11:12:56;;;;;;;5.40;3.53;;;;;;;;;;5094094;28;20256;-83
2022/03/05 11:15:23;;;;;;;5.77;3.80;;;;;;;;;;5093122;28;20221;-84
2022/03/05 11:17:50;;;;;;;6.80;3.60;;;;;;;;;;5100947;28;20260;-84
2022/03/05 11:20:18;;;;;;;6.40;4.17;;;;;;;;;;5105953;28;20232;-84
2022/03/05 11:22:49;;;;;;;5.50;4.10;;;;;;;;;;5112156;28;20361;-82
2022/03/05 11:25:17;;;;;;;5.90;4.30;;;;;;;;;;5106640;28;20198;-83
2022/03/05 11:27:54;;;;;;;5.83;3.73;;;;;;;;;;5103811;28;20272;-82
2022/03/05 11:30:21;;;;;;;5.40;4.10;;;;;;;;;;5106798;28;20225;-82
2022/03/05 11:32:48;;;;;;;5.57;4.10;;;;;;;;;;5112464;28;20632;-84
2022/03/05 11:35:19;;;;;;;8.50;4.10;;;;;;;;;;5108382;28;20283;-82
2022/03/05 11:37:47;;;;;;;35.50;28.23;;;;;;;;;;5098711;28;20301;-83
2022/03/05 11:40:29;;;;;;;9.97;7.17;;;;;;;;;;5100941;28;20262;-83
2022/03/05 11:43:15;;;;;;;24.83;19.03;;;;;;;;;;5113506;28;20224;-84
2022/03/05 11:45:47;;;;;;;26.33;18.47;;;;;;;;;;5104772;28;20232;-83
2022/03/05 11:48:33;;;;;;;10.57;7.93;;;;;;;;;;5100459;28;20285;-82
2022/03/05 11:51:01;;;;;;;5.93;4.70;;;;;;;;;;5083906;28;20250;-82
2022/03/05 11:53:29;;;;;;;8.07;5.90;;;;;;;;;;5103388;28;20244;-82
2022/03/05 11:55:56;;;;;;;8.63;7.43;;;;;;;;;;5107022;28;20299;-82
2022/03/05 11:58:33;;;;;;;5.13;4.10;;;;;;;;;;5101277;28;20308;-82
2022/03/05 12:01:00;;;;;;;7.60;5.10;;;;;;;;;;5110037;28;20285;-82
2022/03/05 12:03:42;;;;;;;22.57;17.30;;;;;;;;;;5092972;28;20682;-82
2022/03/05 12:06:11;;;;;;;7.80;6.10;;;;;;;;;;5093314;28;20650;-82
2022/03/05 12:08:52;;;;;;;12.03;9.43;;;;;;;;;;5099944;28;20226;-83
2022/03/05 12:11:21;;;;;;;23.57;17.37;;;;;;;;;;5099020;28;20201;-83
2022/03/05 12:13:52;;;;;;;11.57;7.67;;;;;;;;;;5112287;28;20281;-83
2022/03/05 12:16:20;;;;;;;6.95;3.90;;;;;;;;;;5099282;28;20285;-82
2022/03/05 12:18:48;;;;;;;5.37;3.40;;;;;;;;;;5091911;28;20206;-82
2022/03/05 12:21:20;;;;;;;4.83;4.23;;;;;;;;;;5098987;28;20237;-83
2022/03/05 12:23:47;;;;;;;4.23;3.37;;;;;;;;;;5112116;28;20286;-82
2022/03/05 12:26:17;;;;;;;31.70;28.33;;;;;;;;;;5101856;28;20234;-82
2022/03/05 12:28:45;;;;;;;19.33;17.43;;;;;;;;;;5101593;28;20198;-82
2022/03/05 12:31:20;;;;;;;6.83;6.20;;;;;;;;;;5107870;28;20280;-82
2022/03/05 12:33:48;;;;;;;7.17;5.73;;;;;;;;;;5112058;28;20232;-82
2022/03/05 12:36:16;;;;;;;4.23;2.70;;;;;;;;;;5091546;28;20230;-81
2022/03/05 12:38:43;;;;;;;9.53;8.20;;;;;;;;;;5091540;28;20272;-82
2022/03/05 12:41:11;;;;;;;19.30;17.33;;;;;;;;;;5110398;28;20281;-81
2022/03/05 12:43:43;;;;;;;8.03;7.23;;;;;;;;;;5110986;28;20286;-82
2022/03/05 12:46:11;;;;;;;3.70;3.30;;;;;;;;;;5110264;28;20194;-83
2022/03/05 12:48:39;;;;;;;22.90;18.70;;;;;;;;;;5114316;28;20281;-83
2022/03/05 12:51:07;;;;;;;5.80;4.90;;;;;;;;;;5108100;28;20198;-81
2022/03/05 12:53:35;;;;;;;3.93;2.93;;;;;;;;;;5095375;28;20225;-82
2022/03/05 12:56:04;;;;;;;3.80;2.43;;;;;;;;;;5094742;28;20937;-82
2022/03/05 12:58:32;;;;;;;4.50;2.90;;;;;;;;;;5095089;28;20309;-82
2022/03/05 13:01:00;;;;;;;3.40;2.40;;;;;;;;;;5113430;28;20284;-81
2022/03/05 13:03:29;;;;;;;3.97;2.70;;;;;;;;;;5098945;28;20230;-82
2022/03/05 13:05:58;;;;;;;4.30;2.90;;;;;;;;;;5099594;28;20220;-82
2022/03/05 13:08:26;;;;;;;4.17;2.90;;;;;;;;;;5101057;28;20739;-81
2022/03/05 13:11:01;;;;;;;4.17;2.93;;;;;;;;;;5093725;28;20312;-82
2022/03/05 13:13:29;;;;;;;4.90;3.40;;;;;;;;;;5093346;28;20531;-82
2022/03/05 13:15:57;;;;;;;5.63;3.80;;;;;;;;;;5114529;28;20439;-81
2022/03/05 13:18:24;;;;;;;5.20;3.80;;;;;;;;;;5115214;28;20257;-82
2022/03/05 13:20:51;;;;;;;4.87;3.40;;;;;;;;;;5115097;28;20286;-82
2022/03/05 13:23:20;;;;;;;4.37;3.77;;;;;;;;;;5114885;28;20266;-82
2022/03/05 13:25:48;;;;;;;5.10;4.03;;;;;;;;;;5102273;28;20238;-81
2022/03/05 13:28:16;;;;;;;5.93;3.83;;;;;;;;;;5094382;28;20237;-81
2022/03/05 13:30:44;;;;;;;6.30;3.97;;;;;;;;;;5094914;28;20238;-82
2022/03/05 13:33:12;;;;;;;5.87;3.97;;;;;;;;;;5105915;28;20255;-81
2022/03/05 13:35:43;;;;;;;6.97;4.10;;;;;;;;;;5114566;28;20232;-81
2022/03/05 13:38:26;;;;;;;4.70;3.30;;;;;;;;;;5114130;28;20257;-81
2022/03/05 13:40:55;;;;;;;4.23;2.70;;;;;;;;;;5114381;28;20285;-81
2022/03/05 13:43:23;;;;;;;4.60;3.00;;;;;;;;;;5114446;28;20278;-82
2022/03/05 13:45:51;;;;;;;3.23;2.50;;;;;;;;;;5114520;28;20285;-82
2022/03/05 13:48:18;;;;;;;3.27;2.43;;;;;;;;;;5104077;28;20199;-82
2022/03/05 13:50:45;;;;;;;2.70;2.30;;;;;;;;;;5093840;28;20289;-82
2022/03/05 13:53:12;;;;;;;3.07;2.30;;;;;;;;;;5093355;28;20230;-81
2022/03/05 13:55:40;;;;;;;4.33;2.20;;;;;;;;;;5093646;28;20740;-82
2022/03/05 13:58:20;;;;;;;3.10;2.40;;;;;;;;;;5093183;28;20279;-82
2022/03/05 14:00:47;;;;;;;3.90;2.87;;;;;;;;;;5094037;28;20203;-81
2022/03/05 14:03:16;;;;;;;4.17;3.10;;;;;;;;;;5093165;28;20198;-81
2022/03/05 14:05:44;;;;;;;8.07;3.70;;;;;;;;;;5093952;28;20225;-81
2022/03/05 14:08:11;;;;;;;5.80;3.67;;;;;;;;;;5113222;28;20277;-81
2022/03/05 14:10:40;;;;;;;5.13;4.10;;;;;;;;;;5104918;28;20297;-81
2022/03/05 14:13:15;;;;;;;5.60;4.20;;;;;;;;;;5099795;28;20227;-81
2022/03/05 14:15:49;;;;;;;5.83;4.50;;;;;;;;;;5113960;28;20224;-81
2022/03/05 14:18:16;;;;;;;7.03;4.23;;;;;;;;;;5113547;28;20218;-81
2022/03/05 14:20:44;;;;;;;5.73;4.67;;;;;;;;;;5096682;28;20245;-81
2022/03/05 14:23:14;;;;;;;5.10;4.30;;;;;;;;;;5093990;28;20276;-79
2022/03/05 14:25:42;;;;;;;6.80;5.50;;;;;;;;;;5102357;28;20238;-79
2022/03/05 14:28:13;;;;;;;7.03;4.63;;;;;;;;;;5091972;28;20198;-80
2022/03/05 14:30:40;;;;;;;4.97;4.30;;;;;;;;;;5102729;28;20193;-80
2022/03/05 14:33:08;;;;;;;6.50;4.93;;;;;;;;;;5102966;28;20603;-79
2022/03/05 14:35:35;;;;;;;7.60;5.70;;;;;;;;;;5095873;28;20313;-79
2022/03/05 14:38:02;;;;;;;4.37;3.40;;;;;;;;;;5092935;28;20300;-80
2022/03/05 14:40:31;;;;;;;5.50;3.77;;;;;;;;;;5092769;28;20288;-79
2022/03/05 14:42:58;;;;;;;4.67;4.07;;;;;;;;;;5093210;28;20432;-79
2022/03/05 14:45:27;;;;;;;6.37;5.33;;;;;;;;;;5102502;28;20194;-80